Time;durP1;ratioP1;P1;durP2;ratioP2;P2;SDS_P1;SDS_P2;PMS_P1;PMS_P2;Temp;Humidity;BMP_temperature;BMP_pressure;BME280_temperature;BME280_humidity;BME280_pressure;Samples;Min_cycle;Max_cycle;Signal;HPM_P1;HPM_P2
2023/09/15 00:00:44;;;;;;;2.90;1.95;;;22.00;80.10;;;;;;4997109;28;20092;-83
2023/09/15 00:03:11;;;;;;;3.33;2.17;;;21.90;79.80;;;;;;5014640;28;20026;-83
2023/09/15 00:05:37;;;;;;;1.80;1.52;;;21.90;80.20;;;;;;5014540;28;20030;-84
2023/09/15 00:08:04;;;;;;;5.72;2.17;;;21.90;80.10;;;;;;4997157;28;20117;-83
2023/09/15 00:10:37;;;;;;;3.55;2.08;;;21.90;79.70;;;;;;5014592;28;20065;-83
2023/09/15 00:13:03;;;;;;;2.95;1.83;;;21.90;79.80;;;;;;5014318;28;20030;-82
2023/09/15 00:15:28;;;;;;;4.38;2.08;;;21.90;80.00;;;;;;5014226;28;20037;-82
2023/09/15 00:17:55;;;;;;;3.60;1.83;;;21.90;80.00;;;;;;5014353;28;20084;-82
2023/09/15 00:20:21;;;;;;;3.80;2.30;;;21.90;80.20;;;;;;4996857;28;20038;-82
2023/09/15 00:22:51;;;;;;;3.30;1.95;;;21.90;80.50;;;;;;5013831;28;20026;-82
2023/09/15 00:25:28;;;;;;;2.72;2.20;;;21.90;78.70;;;;;;5014425;28;20057;-83
2023/09/15 00:27:59;;;;;;;4.05;1.70;;;21.80;77.30;;;;;;5014228;28;20037;-83
2023/09/15 00:30:26;;;;;;;3.55;1.80;;;21.80;78.70;;;;;;5014258;28;20121;-83
2023/09/15 00:32:52;;;;;;;6.82;2.47;;;21.80;79.60;;;;;;5013666;28;20140;-83
2023/09/15 00:35:23;;;;;;;4.07;2.10;;;21.80;79.80;;;;;;5014061;28;20037;-83
2023/09/15 00:37:51;;;;;;;3.88;2.40;;;21.80;79.60;;;;;;5014110;28;20034;-83
2023/09/15 00:40:19;;;;;;;3.20;1.90;;;21.80;79.90;;;;;;5013900;28;20041;-83
2023/09/15 00:42:46;;;;;;;4.43;2.05;;;21.80;80.20;;;;;;5013924;28;20040;-83
2023/09/15 00:45:15;;;;;;;2.92;1.48;;;21.80;80.30;;;;;;4996198;28;20026;-80
2023/09/15 00:47:49;;;;;;;4.03;2.28;;;21.80;80.50;;;;;;5013899;28;20026;-83
2023/09/15 00:50:20;;;;;;;2.08;1.70;;;21.80;80.60;;;;;;5013967;28;20064;-83
2023/09/15 00:52:55;;;;;;;4.97;2.08;;;21.90;80.70;;;;;;5013306;28;20469;-82
2023/09/15 00:55:22;;;;;;;3.65;2.20;;;21.80;80.30;;;;;;5013791;28;20046;-82
2023/09/15 00:57:51;;;;;;;3.92;2.40;;;21.80;80.70;;;;;;5013422;28;20045;-83
2023/09/15 01:00:17;;;;;;;3.10;2.00;;;21.90;80.50;;;;;;4995887;28;20483;-82
2023/09/15 01:02:44;;;;;;;4.40;1.90;;;21.80;80.00;;;;;;5013757;28;20075;-83
2023/09/15 01:05:19;;;;;;;2.80;1.80;;;21.80;80.20;;;;;;4996274;28;20092;-83
2023/09/15 01:07:46;;;;;;;2.90;1.65;;;21.80;80.60;;;;;;5013856;28;20352;-84
2023/09/15 01:10:12;;;;;;;2.58;1.75;;;21.80;80.50;;;;;;5013393;28;20034;-84
2023/09/15 01:12:38;;;;;;;2.65;1.98;;;21.70;80.00;;;;;;5013708;28;20030;-84
2023/09/15 01:15:04;;;;;;;3.40;2.10;;;21.70;80.20;;;;;;4995839;28;20056;-83
2023/09/15 01:17:39;;;;;;;4.90;2.10;;;21.60;80.10;;;;;;5013688;28;20041;-84
2023/09/15 01:20:25;;;;;;;2.47;1.55;;;21.60;80.30;;;;;;5013584;28;20363;-83
2023/09/15 01:23:28;;;;;;;4.30;2.40;;;21.60;80.70;;;;;;4972862;28;20046;-83
2023/09/15 01:26:02;;;;;;;4.55;2.58;;;21.60;79.30;;;;;;4917825;29;20484;-83
2023/09/15 01:29:03;;;;;;;3.58;2.03;;;21.60;80.10;;;;;;4983750;28;20034;-83
2023/09/15 01:31:30;;;;;;;3.42;2.00;;;21.60;80.60;;;;;;4982324;28;20486;-83
2023/09/15 01:33:56;;;;;;;4.15;2.13;;;21.50;80.60;;;;;;5013527;28;20462;-83
2023/09/15 01:36:21;;;;;;;4.35;2.40;;;21.50;80.60;;;;;;5013759;28;20037;-83
2023/09/15 01:38:47;;;;;;;2.78;1.70;;;21.50;80.40;;;;;;5012929;28;20034;-82
2023/09/15 01:41:13;;;;;;;4.18;2.10;;;21.50;80.90;;;;;;5013442;28;20101;-82
2023/09/15 01:43:38;;;;;;;3.83;1.80;;;21.50;80.90;;;;;;5013514;28;20386;-82
2023/09/15 01:46:04;;;;;;;2.65;1.70;;;21.50;81.20;;;;;;5013331;28;20034;-82
2023/09/15 01:48:31;;;;;;;3.55;1.92;;;21.60;81.50;;;;;;4995604;28;20026;-83
2023/09/15 01:50:57;;;;;;;3.63;1.63;;;21.60;81.40;;;;;;4979569;28;20481;-83
2023/09/15 01:53:24;;;;;;;2.60;1.48;;;21.60;80.70;;;;;;5012680;28;20061;-83
2023/09/15 01:55:50;;;;;;;3.53;1.90;;;21.60;80.90;;;;;;5011305;28;20042;-82
2023/09/15 01:58:18;;;;;;;2.50;1.33;;;21.60;81.00;;;;;;5013584;28;20037;-82
2023/09/15 02:00:43;;;;;;;3.25;1.95;;;21.60;81.00;;;;;;5013057;28;20034;-82
2023/09/15 02:03:09;;;;;;;2.83;1.90;;;21.60;81.30;;;;;;5012973;28;20455;-83
2023/09/15 02:05:35;;;;;;;2.10;1.60;;;21.60;81.40;;;;;;5013066;28;20360;-83
2023/09/15 02:08:00;;;;;;;2.38;1.63;;;21.50;81.40;;;;;;5013850;28;20068;-82
2023/09/15 02:10:26;;;;;;;2.00;1.45;;;21.50;80.90;;;;;;5016959;28;20037;-82
2023/09/15 02:12:52;;;;;;;4.30;2.40;;;21.50;81.40;;;;;;5016823;28;20037;-83
2023/09/15 02:15:17;;;;;;;3.35;2.15;;;21.50;81.20;;;;;;4983101;28;20037;-83
2023/09/15 02:17:43;;;;;;;2.58;1.27;;;21.40;80.00;;;;;;4999148;28;20494;-84
2023/09/15 02:20:11;;;;;;;2.97;1.95;;;21.30;80.90;;;;;;4998826;28;20120;-83
2023/09/15 02:22:40;;;;;;;3.78;2.22;;;21.30;81.20;;;;;;5016154;28;20108;-83
2023/09/15 02:25:06;;;;;;;2.97;1.88;;;21.30;80.40;;;;;;5016288;28;20060;-83
2023/09/15 02:27:31;;;;;;;4.15;2.15;;;21.30;81.10;;;;;;5016213;28;20540;-83
2023/09/15 02:29:57;;;;;;;2.45;1.70;;;21.30;81.30;;;;;;4998718;28;20037;-83
2023/09/15 02:32:22;;;;;;;4.13;1.98;;;21.30;81.60;;;;;;4982566;28;20410;-81
2023/09/15 02:34:48;;;;;;;3.08;1.58;;;21.40;81.80;;;;;;5016289;28;20200;-82
2023/09/15 02:37:15;;;;;;;3.30;1.92;;;21.40;81.80;;;;;;5016339;28;20084;-82
2023/09/15 02:39:40;;;;;;;2.08;1.50;;;21.40;81.80;;;;;;5015862;28;20045;-82
2023/09/15 02:42:06;;;;;;;2.10;1.90;;;21.50;81.70;;;;;;5016197;28;20034;-83
2023/09/15 02:44:32;;;;;;;4.15;1.63;;;21.50;81.60;;;;;;5015905;28;20026;-83
2023/09/15 02:46:58;;;;;;;2.47;1.77;;;21.50;81.40;;;;;;4998526;28;20083;-82
2023/09/15 02:49:23;;;;;;;4.63;1.90;;;21.50;81.50;;;;;;5016114;28;20033;-82
2023/09/15 02:51:49;;;;;;;2.90;1.60;;;21.40;81.50;;;;;;5016055;28;20065;-82
2023/09/15 02:54:15;;;;;;;3.42;2.10;;;21.50;81.50;;;;;;5015515;28;20103;-83
2023/09/15 02:56:40;;;;;;;2.45;1.38;;;21.50;81.50;;;;;;5015774;28;20029;-82
2023/09/15 02:59:06;;;;;;;3.25;1.60;;;21.50;81.30;;;;;;4982053;28;20037;-83
2023/09/15 03:01:31;;;;;;;4.70;2.72;;;21.50;81.50;;;;;;5015838;28;20038;-83
2023/09/15 03:03:57;;;;;;;2.80;1.52;;;21.50;81.50;;;;;;5015660;28;20168;-83
2023/09/15 03:06:23;;;;;;;3.13;1.50;;;21.50;81.20;;;;;;4998362;28;20041;-83
2023/09/15 03:08:49;;;;;;;3.08;1.50;;;21.50;81.60;;;;;;5015361;28;20128;-82
2023/09/15 03:11:17;;;;;;;3.17;1.65;;;21.40;81.70;;;;;;5015942;28;20088;-84
2023/09/15 03:13:42;;;;;;;2.53;1.65;;;21.40;81.70;;;;;;5015434;28;20556;-84
2023/09/15 03:16:11;;;;;;;3.15;1.70;;;21.40;81.70;;;;;;5015546;28;20030;-84
2023/09/15 03:18:37;;;;;;;3.33;1.90;;;21.40;81.40;;;;;;5014847;28;20026;-84
2023/09/15 03:21:04;;;;;;;2.47;1.70;;;21.40;81.50;;;;;;4998017;28;20382;-85
2023/09/15 03:23:30;;;;;;;2.75;1.63;;;21.40;81.50;;;;;;5014980;28;20026;-83
2023/09/15 03:26:00;;;;;;;3.50;1.42;;;21.40;81.40;;;;;;4997659;28;20033;-83
2023/09/15 03:28:26;;;;;;;2.55;1.40;;;21.30;81.70;;;;;;5015585;28;20044;-83
2023/09/15 03:30:52;;;;;;;3.00;1.90;;;21.40;81.90;;;;;;5015238;28;20454;-83
2023/09/15 03:33:17;;;;;;;3.05;2.00;;;21.30;81.00;;;;;;5015280;28;20034;-82
2023/09/15 03:35:43;;;;;;;3.08;1.70;;;21.30;81.00;;;;;;4981489;28;20034;-83
2023/09/15 03:38:09;;;;;;;5.00;2.53;;;21.20;81.40;;;;;;5014881;28;20036;-83
2023/09/15 03:40:34;;;;;;;4.15;1.60;;;21.20;81.50;;;;;;4997603;28;20466;-83
2023/09/15 03:43:00;;;;;;;3.25;1.95;;;21.20;81.70;;;;;;5014756;28;20026;-82
2023/09/15 03:45:26;;;;;;;2.95;1.80;;;21.10;81.30;;;;;;5014948;28;20061;-82
2023/09/15 03:47:51;;;;;;;4.68;2.05;;;21.20;81.60;;;;;;5014954;28;20112;-82
2023/09/15 03:50:21;;;;;;;3.67;2.10;;;21.20;81.50;;;;;;5014562;28;20069;-83
2023/09/15 03:52:47;;;;;;;3.10;1.60;;;21.10;80.90;;;;;;4997297;28;20498;-82
2023/09/15 03:55:13;;;;;;;3.28;1.73;;;21.10;81.50;;;;;;5014356;28;20550;-82
2023/09/15 03:57:38;;;;;;;3.83;1.83;;;21.10;81.80;;;;;;5014636;28;20308;-83
2023/09/15 04:00:05;;;;;;;3.25;1.95;;;21.10;81.80;;;;;;5014690;28;20037;-84
2023/09/15 04:02:31;;;;;;;2.42;1.45;;;21.10;81.30;;;;;;5014629;28;20041;-84
2023/09/15 04:04:56;;;;;;;3.08;1.67;;;21.10;81.50;;;;;;4996883;28;20037;-83
2023/09/15 04:07:22;;;;;;;2.17;1.38;;;21.10;81.70;;;;;;5014230;28;20065;-83
2023/09/15 04:09:48;;;;;;;2.83;1.20;;;21.10;81.90;;;;;;5014525;28;20045;-82
2023/09/15 04:12:13;;;;;;;2.80;1.90;;;21.00;82.00;;;;;;5014550;28;20030;-83
2023/09/15 04:14:39;;;;;;;3.75;2.10;;;21.00;81.90;;;;;;4996705;28;20445;-84
2023/09/15 04:17:05;;;;;;;2.72;1.35;;;21.00;81.30;;;;;;4996743;28;20113;-83
2023/09/15 04:19:31;;;;;;;3.40;1.90;;;20.90;81.80;;;;;;5014322;28;20038;-83
2023/09/15 04:21:58;;;;;;;2.90;1.70;;;20.90;81.60;;;;;;5013973;28;20030;-83
2023/09/15 04:24:25;;;;;;;3.00;1.73;;;20.90;81.60;;;;;;4996415;28;20506;-82
2023/09/15 04:26:50;;;;;;;2.40;1.65;;;20.90;82.00;;;;;;4996542;28;20033;-82
2023/09/15 04:29:16;;;;;;;2.58;1.60;;;20.90;82.10;;;;;;4996619;28;20033;-83
2023/09/15 04:31:42;;;;;;;2.50;1.63;;;20.80;82.30;;;;;;4979487;28;20041;-83
2023/09/15 04:34:07;;;;;;;4.30;1.80;;;20.90;82.40;;;;;;5013859;28;20026;-83
2023/09/15 04:36:33;;;;;;;3.70;1.77;;;20.80;81.00;;;;;;4996639;28;20083;-83
2023/09/15 04:38:58;;;;;;;3.78;1.90;;;20.70;81.80;;;;;;5013785;28;20038;-83
2023/09/15 04:41:24;;;;;;;3.03;1.92;;;20.70;81.30;;;;;;5013995;28;20034;-83
2023/09/15 04:43:51;;;;;;;3.10;1.70;;;20.60;81.50;;;;;;5014003;28;20032;-83
2023/09/15 04:46:18;;;;;;;5.20;2.40;;;20.60;82.20;;;;;;5013774;28;20030;-82
2023/09/15 04:48:44;;;;;;;2.70;1.48;;;20.50;80.10;;;;;;5013538;28;20037;-82
2023/09/15 04:51:11;;;;;;;2.50;1.70;;;20.40;80.10;;;;;;5013560;28;20054;-82
2023/09/15 04:53:36;;;;;;;3.70;2.03;;;20.40;81.50;;;;;;4995665;28;20038;-83
2023/09/15 04:56:03;;;;;;;3.28;1.90;;;20.40;82.00;;;;;;5013670;28;20108;-83
2023/09/15 04:58:29;;;;;;;3.42;1.73;;;20.30;81.70;;;;;;4980033;28;20034;-83
2023/09/15 05:01:03;;;;;;;3.10;1.70;;;20.30;81.70;;;;;;5013640;28;20041;-83
2023/09/15 05:03:29;;;;;;;5.22;2.30;;;20.30;82.10;;;;;;5014141;28;20042;-84
2023/09/15 05:05:55;;;;;;;3.30;1.77;;;20.20;80.60;;;;;;5013950;28;20055;-84
2023/09/15 05:08:21;;;;;;;3.97;1.95;;;20.10;81.90;;;;;;5013621;28;20026;-84
2023/09/15 05:10:48;;;;;;;3.58;1.90;;;20.10;82.30;;;;;;5013777;28;20046;-83
2023/09/15 05:13:14;;;;;;;5.25;2.25;;;20.10;82.90;;;;;;5013602;28;20478;-84
2023/09/15 05:15:40;;;;;;;3.33;1.83;;;20.10;82.10;;;;;;5013802;28;20117;-84
2023/09/15 05:18:06;;;;;;;4.32;2.13;;;20.00;82.10;;;;;;4995785;28;20113;-83
2023/09/15 05:20:31;;;;;;;3.92;1.67;;;20.00;81.20;;;;;;4995722;28;20045;-83
2023/09/15 05:22:57;;;;;;;3.70;2.58;;;19.90;81.80;;;;;;5013190;28;20037;-83
2023/09/15 05:25:23;;;;;;;7.13;3.33;;;19.90;81.40;;;;;;5013529;28;20030;-82
2023/09/15 05:27:48;;;;;;;6.20;2.63;;;19.70;79.80;;;;;;4995923;28;20067;-83
2023/09/15 05:30:15;;;;;;;6.20;2.42;;;19.40;80.60;;;;;;5013423;28;20034;-83
2023/09/15 05:32:41;;;;;;;4.20;2.33;;;19.20;81.70;;;;;;5013481;28;20525;-83
2023/09/15 05:35:10;;;;;;;4.88;2.55;;;19.20;81.60;;;;;;5013479;28;20026;-83
2023/09/15 05:37:36;;;;;;;3.97;1.75;;;19.10;82.10;;;;;;5013538;28;20033;-83
2023/09/15 05:40:03;;;;;;;5.72;2.67;;;19.10;83.20;;;;;;4995960;28;20046;-83
2023/09/15 05:42:28;;;;;;;4.90;2.50;;;18.80;81.50;;;;;;5015003;28;20029;-83
2023/09/15 05:44:54;;;;;;;5.15;2.83;;;18.70;83.40;;;;;;5016905;28;20120;-84
2023/09/15 05:47:23;;;;;;;4.85;2.90;;;18.70;83.10;;;;;;5017316;28;20030;-82
2023/09/15 05:49:49;;;;;;;5.22;2.30;;;18.70;83.20;;;;;;5016874;28;20042;-82
2023/09/15 05:52:14;;;;;;;5.03;2.50;;;18.70;84.00;;;;;;4999392;28;20034;-83
2023/09/15 05:54:40;;;;;;;5.78;3.10;;;18.80;84.00;;;;;;5016610;28;20133;-83
2023/09/15 05:57:06;;;;;;;5.20;3.28;;;18.90;84.00;;;;;;4999490;28;20083;-83
2023/09/15 05:59:31;;;;;;;4.07;2.40;;;18.80;82.60;;;;;;5016486;28;20050;-82
2023/09/15 06:01:57;;;;;;;6.10;2.80;;;18.60;83.60;;;;;;5017243;28;20041;-82
2023/09/15 06:04:23;;;;;;;6.28;3.08;;;18.60;84.10;;;;;;4999268;28;20100;-82
2023/09/15 06:06:49;;;;;;;7.93;4.45;;;18.60;84.00;;;;;;5016605;28;20382;-82
2023/09/15 06:09:15;;;;;;;6.50;3.50;;;18.30;82.80;;;;;;5016881;28;20038;-83
2023/09/15 06:11:40;;;;;;;8.82;3.92;;;18.00;83.90;;;;;;5016324;28;20033;-83
2023/09/15 06:14:06;;;;;;;6.13;3.03;;;17.80;85.20;;;;;;4999206;28;20038;-83
2023/09/15 06:16:36;;;;;;;7.78;2.97;;;17.90;85.60;;;;;;5017055;28;20034;-83
2023/09/15 06:19:02;;;;;;;8.27;4.40;;;18.00;85.60;;;;;;4999766;28;20042;-83
2023/09/15 06:21:29;;;;;;;6.85;3.33;;;18.00;85.00;;;;;;4998804;28;20056;-83
2023/09/15 06:23:55;;;;;;;7.10;4.32;;;17.80;85.30;;;;;;5016570;28;20033;-82
2023/09/15 06:26:21;;;;;;;7.05;4.30;;;17.70;85.70;;;;;;5016243;28;20029;-83
2023/09/15 06:28:47;;;;;;;6.15;3.65;;;17.50;86.20;;;;;;4999162;28;20109;-83
2023/09/15 06:31:12;;;;;;;7.80;4.30;;;17.40;86.80;;;;;;4999144;28;20038;-83
2023/09/15 06:33:38;;;;;;;7.20;3.45;;;17.50;87.20;;;;;;4998754;28;20537;-83
2023/09/15 06:36:04;;;;;;;5.63;2.92;;;17.40;87.20;;;;;;4998953;28;20418;-83
2023/09/15 06:38:31;;;;;;;6.43;3.88;;;17.50;88.40;;;;;;4998869;28;20497;-83
2023/09/15 06:40:57;;;;;;;6.05;4.07;;;17.60;87.10;;;;;;5016179;28;20111;-84
2023/09/15 06:43:23;;;;;;;8.23;4.00;;;17.60;86.70;;;;;;4998984;28;20057;-83
2023/09/15 06:45:49;;;;;;;6.15;3.20;;;17.70;87.40;;;;;;5016403;28;20088;-82
2023/09/15 06:48:14;;;;;;;8.88;4.15;;;17.80;87.70;;;;;;5016441;28;20506;-82
2023/09/15 06:50:40;;;;;;;7.88;3.83;;;18.00;87.10;;;;;;4998590;28;20475;-83
2023/09/15 06:53:05;;;;;;;6.82;3.33;;;17.90;86.10;;;;;;4997740;28;20037;-83
2023/09/15 06:55:32;;;;;;;6.07;3.38;;;18.00;87.00;;;;;;4997383;28;20061;-83
2023/09/15 06:57:58;;;;;;;6.68;3.72;;;18.10;87.20;;;;;;5015983;28;20038;-83
2023/09/15 07:00:24;;;;;;;5.13;3.15;;;18.20;86.80;;;;;;4982269;28;20065;-83
2023/09/15 07:02:50;;;;;;;5.72;3.17;;;18.30;86.50;;;;;;5015733;28;20038;-82
2023/09/15 07:05:15;;;;;;;10.27;4.30;;;18.40;86.20;;;;;;5015927;28;20614;-83
2023/09/15 07:07:41;;;;;;;8.80;5.05;;;18.50;85.70;;;;;;5015842;28;20034;-83
2023/09/15 07:10:08;;;;;;;7.75;4.40;;;18.50;84.50;;;;;;5015608;28;20034;-83
2023/09/15 07:12:33;;;;;;;11.70;4.80;;;18.30;85.20;;;;;;5016197;28;20117;-82
2023/09/15 07:15:03;;;;;;;7.63;3.75;;;18.20;86.00;;;;;;5015738;28;20508;-83
2023/09/15 07:17:29;;;;;;;10.85;4.25;;;18.30;86.50;;;;;;4998112;28;20112;-83
2023/09/15 07:19:54;;;;;;;10.05;4.35;;;18.40;86.20;;;;;;4998008;28;20033;-83
2023/09/15 07:22:20;;;;;;;7.28;4.15;;;18.50;85.70;;;;;;5015603;28;20033;-82
2023/09/15 07:24:46;;;;;;;6.15;3.50;;;18.60;85.20;;;;;;5014809;28;20033;-83
2023/09/15 07:27:11;;;;;;;8.02;3.95;;;18.60;84.70;;;;;;4998003;28;20562;-83
2023/09/15 07:29:37;;;;;;;9.93;4.90;;;18.60;84.30;;;;;;4997768;28;20565;-82
2023/09/15 07:32:04;;;;;;;7.57;4.40;;;18.70;84.50;;;;;;5015537;28;20022;-83
2023/09/15 07:34:30;;;;;;;9.00;4.40;;;18.70;84.50;;;;;;5015050;28;20030;-83
2023/09/15 07:36:55;;;;;;;5.90;3.95;;;18.80;84.50;;;;;;5015070;28;20113;-83
2023/09/15 07:39:21;;;;;;;8.82;4.30;;;18.90;84.30;;;;;;5015024;28;20042;-83
2023/09/15 07:41:47;;;;;;;7.85;4.78;;;19.00;84.80;;;;;;5015189;28;20091;-83
2023/09/15 07:44:13;;;;;;;8.55;4.50;;;18.90;84.90;;;;;;4997199;28;20037;-83
2023/09/15 07:46:39;;;;;;;7.85;4.30;;;18.90;85.10;;;;;;5015596;28;20117;-82
2023/09/15 07:49:05;;;;;;;12.02;4.95;;;19.00;84.80;;;;;;4997936;28;20030;-82
2023/09/15 07:51:31;;;;;;;10.02;4.85;;;19.00;84.90;;;;;;4998049;28;20438;-82
2023/09/15 07:53:57;;;;;;;9.23;4.90;;;19.10;85.00;;;;;;4981062;28;20030;-83
2023/09/15 07:56:23;;;;;;;13.40;4.78;;;19.10;84.50;;;;;;4996864;28;20056;-83
2023/09/15 07:58:49;;;;;;;10.07;4.75;;;19.20;84.60;;;;;;4997158;28;20406;-83
2023/09/15 08:01:15;;;;;;;9.63;4.35;;;19.20;83.80;;;;;;5014699;28;20122;-83
2023/09/15 08:03:41;;;;;;;6.05;3.50;;;19.20;84.30;;;;;;5014731;28;20034;-81
2023/09/15 08:06:08;;;;;;;10.02;4.47;;;19.40;84.50;;;;;;5013969;28;20121;-84
2023/09/15 08:08:34;;;;;;;11.98;4.68;;;19.50;83.90;;;;;;4997236;28;20037;-84
2023/09/15 08:10:59;;;;;;;9.32;4.15;;;19.40;83.70;;;;;;5014727;28;20478;-83
2023/09/15 08:13:25;;;;;;;6.60;3.55;;;19.40;83.90;;;;;;4981066;28;20030;-83
2023/09/15 08:15:51;;;;;;;6.80;4.15;;;19.50;83.90;;;;;;5014053;28;20083;-84
2023/09/15 08:18:21;;;;;;;10.43;4.18;;;19.70;83.10;;;;;;4997111;28;20117;-83
2023/09/15 08:20:47;;;;;;;8.00;3.05;;;19.80;82.50;;;;;;5014134;28;20491;-84
2023/09/15 08:23:13;;;;;;;8.00;3.58;;;19.80;82.50;;;;;;5014540;28;20042;-83
2023/09/15 08:25:40;;;;;;;7.75;3.60;;;20.10;82.00;;;;;;5014422;28;20554;-84
2023/09/15 08:28:06;;;;;;;8.13;3.60;;;20.10;81.30;;;;;;5014215;28;20061;-83
2023/09/15 08:30:35;;;;;;;7.50;3.70;;;20.20;81.80;;;;;;5014217;28;20037;-83
2023/09/15 08:33:05;;;;;;;7.18;2.75;;;20.20;80.40;;;;;;5014525;28;20045;-83
2023/09/15 08:35:32;;;;;;;10.10;3.80;;;20.40;80.70;;;;;;5014094;28;20047;-83
2023/09/15 08:37:57;;;;;;;5.93;2.30;;;20.40;80.10;;;;;;4996793;28;20029;-83
2023/09/15 08:40:23;;;;;;;11.52;3.38;;;20.50;80.70;;;;;;5014236;28;20391;-83
2023/09/15 08:42:49;;;;;;;6.90;3.08;;;20.70;80.10;;;;;;4996565;28;20038;-84
2023/09/15 08:45:15;;;;;;;7.57;3.42;;;20.70;79.80;;;;;;5014356;28;20038;-83
2023/09/15 08:47:49;;;;;;;8.02;3.35;;;20.60;80.50;;;;;;5013697;28;20034;-82
2023/09/15 08:50:16;;;;;;;6.50;3.70;;;20.80;80.70;;;;;;5014506;28;20033;-83
2023/09/15 08:52:42;;;;;;;6.38;3.72;;;20.90;80.10;;;;;;4996557;28;20030;-83
2023/09/15 08:55:08;;;;;;;8.23;4.28;;;20.90;80.60;;;;;;4992535;28;20145;-83
2023/09/15 08:57:36;;;;;;;6.18;2.75;;;20.80;79.50;;;;;;4993069;28;20062;-83
2023/09/15 09:00:02;;;;;;;10.38;4.25;;;20.80;80.00;;;;;;4994350;28;20035;-83
2023/09/15 09:02:28;;;;;;;7.63;3.90;;;21.00;80.40;;;;;;4977338;28;20031;-83
2023/09/15 09:04:54;;;;;;;7.65;3.42;;;21.10;80.10;;;;;;4994466;28;20084;-83
2023/09/15 09:07:24;;;;;;;10.05;4.40;;;21.10;80.40;;;;;;4994105;28;20040;-83
2023/09/15 09:09:51;;;;;;;7.72;3.90;;;21.20;80.10;;;;;;4994586;28;20459;-84
2023/09/15 09:12:16;;;;;;;6.63;4.22;;;21.20;80.70;;;;;;4993450;28;20497;-84
2023/09/15 09:14:42;;;;;;;10.63;3.78;;;21.30;81.00;;;;;;4995151;28;20151;-83
2023/09/15 09:17:08;;;;;;;9.93;4.65;;;21.20;79.90;;;;;;4996530;28;20070;-83
2023/09/15 09:19:39;;;;;;;6.32;3.45;;;21.20;80.40;;;;;;4998829;28;20037;-84
2023/09/15 09:22:07;;;;;;;8.68;3.83;;;21.30;79.30;;;;;;4998708;28;20053;-84
2023/09/15 09:24:37;;;;;;;6.35;3.83;;;21.40;79.20;;;;;;4997961;28;20034;-84
2023/09/15 09:27:11;;;;;;;10.68;4.07;;;21.30;79.70;;;;;;4997874;28;20030;-84
2023/09/15 09:29:38;;;;;;;12.73;3.90;;;21.20;80.50;;;;;;4998286;28;20030;-84
2023/09/15 09:32:12;;;;;;;11.43;4.47;;;21.30;80.60;;;;;;4997986;28;20031;-85
2023/09/15 09:34:38;;;;;;;9.05;4.32;;;21.40;79.90;;;;;;4997675;28;20037;-83
2023/09/15 09:37:04;;;;;;;9.00;3.63;;;21.60;79.50;;;;;;4996445;28;20034;-82
2023/09/15 09:39:29;;;;;;;6.78;3.38;;;21.60;79.10;;;;;;4997671;28;20073;-82
2023/09/15 09:41:56;;;;;;;8.40;3.65;;;21.70;78.40;;;;;;4996522;28;20077;-83
2023/09/15 09:44:22;;;;;;;4.07;2.60;;;21.90;78.30;;;;;;4996397;28;20034;-82
2023/09/15 09:46:52;;;;;;;4.75;3.00;;;22.00;77.80;;;;;;4997639;28;20023;-83
2023/09/15 09:49:18;;;;;;;4.95;3.13;;;22.20;76.50;;;;;;4997447;28;20034;-83
2023/09/15 09:51:44;;;;;;;4.55;2.58;;;22.20;75.90;;;;;;4996233;28;20031;-84
2023/09/15 09:54:13;;;;;;;6.18;3.05;;;22.30;77.00;;;;;;4997279;28;20069;-83
2023/09/15 09:56:39;;;;;;;7.40;3.35;;;22.30;76.70;;;;;;5015503;28;20510;-83
2023/09/15 09:59:11;;;;;;;6.68;3.10;;;22.40;77.10;;;;;;4983190;28;20061;-82
2023/09/15 10:01:37;;;;;;;5.20;3.10;;;22.40;75.40;;;;;;5016963;28;20046;-82
2023/09/15 10:04:06;;;;;;;7.28;2.85;;;22.50;75.30;;;;;;5016456;28;20391;-83
2023/09/15 10:06:35;;;;;;;6.32;2.90;;;22.70;74.30;;;;;;5016464;28;20084;-83
2023/09/15 10:09:01;;;;;;;6.05;2.28;;;22.90;74.60;;;;;;5016631;28;20037;-82
2023/09/15 10:11:28;;;;;;;4.60;2.67;;;22.90;74.80;;;;;;5016599;28;20054;-83
2023/09/15 10:13:56;;;;;;;7.25;3.15;;;23.10;75.30;;;;;;5016451;28;20053;-83
2023/09/15 10:16:22;;;;;;;6.53;2.63;;;23.20;75.50;;;;;;5016408;28;20470;-83
2023/09/15 10:18:49;;;;;;;8.32;3.40;;;23.30;74.60;;;;;;5015505;28;20030;-84
2023/09/15 10:21:15;;;;;;;20.75;4.10;;;23.40;72.90;;;;;;4998525;28;20034;-82
2023/09/15 10:23:40;;;;;;;7.70;2.72;;;23.30;72.60;;;;;;5015981;28;20125;-83
2023/09/15 10:26:09;;;;;;;6.07;2.92;;;23.30;72.80;;;;;;5016318;28;20042;-84
2023/09/15 10:28:34;;;;;;;6.93;3.20;;;23.40;74.30;;;;;;5015239;28;20026;-84
2023/09/15 10:31:00;;;;;;;6.25;2.90;;;23.60;73.60;;;;;;5016006;28;20309;-84
2023/09/15 10:33:27;;;;;;;5.53;2.95;;;23.70;72.80;;;;;;5016217;28;20098;-83
2023/09/15 10:35:59;;;;;;;5.28;2.58;;;23.80;72.60;;;;;;5016103;28;20040;-84
2023/09/15 10:38:29;;;;;;;6.03;2.50;;;23.90;71.90;;;;;;4997893;28;20026;-83
2023/09/15 10:40:58;;;;;;;6.60;2.75;;;24.00;72.00;;;;;;5014592;28;20081;-83
2023/09/15 10:43:23;;;;;;;5.90;2.30;;;24.10;70.80;;;;;;5015807;28;20037;-83
2023/09/15 10:46:02;;;;;;;3.40;1.85;;;24.10;69.10;;;;;;4998590;28;20042;-83
2023/09/15 10:48:44;;;;;;;4.25;2.13;;;24.20;69.60;;;;;;5016232;28;20104;-83
2023/09/15 10:51:10;;;;;;;6.85;2.83;;;24.30;69.90;;;;;;5015819;28;20105;-84
2023/09/15 10:53:43;;;;;;;6.72;2.88;;;24.40;69.90;;;;;;4997600;28;20042;-83
2023/09/15 10:56:09;;;;;;;5.30;2.78;;;24.50;68.90;;;;;;5015694;28;20141;-84
2023/09/15 10:58:36;;;;;;;4.70;2.65;;;24.60;69.40;;;;;;4982004;28;20124;-84
2023/09/15 11:01:03;;;;;;;5.88;2.88;;;24.60;68.50;;;;;;4981900;28;20453;-82
2023/09/15 11:03:29;;;;;;;6.57;3.15;;;24.60;68.80;;;;;;5015360;28;20049;-83
2023/09/15 11:05:56;;;;;;;6.45;2.70;;;24.60;67.70;;;;;;5015548;28;20030;-83
2023/09/15 11:08:24;;;;;;;5.65;3.13;;;24.70;69.20;;;;;;5015580;28;20100;-84
2023/09/15 11:10:59;;;;;;;7.75;2.97;;;24.50;69.60;;;;;;5015347;28;20033;-83
2023/09/15 11:13:25;;;;;;;4.82;2.50;;;24.30;70.10;;;;;;5015505;28;20029;-84
2023/09/15 11:15:51;;;;;;;4.68;2.78;;;24.20;69.10;;;;;;4997676;28;20052;-83
2023/09/15 11:18:18;;;;;;;8.63;2.95;;;24.40;69.90;;;;;;5015354;28;20030;-84
2023/09/15 11:20:44;;;;;;;4.28;2.30;;;24.50;68.40;;;;;;5015428;28;20073;-83
2023/09/15 11:23:10;;;;;;;4.00;2.15;;;24.70;69.50;;;;;;4997901;28;20042;-83
2023/09/15 11:25:36;;;;;;;5.68;2.85;;;24.90;69.70;;;;;;5015347;28;20108;-83
2023/09/15 11:28:02;;;;;;;7.28;2.50;;;25.00;69.20;;;;;;4997251;28;20466;-83
2023/09/15 11:30:29;;;;;;;6.30;2.28;;;25.20;68.10;;;;;;5015029;28;20386;-83
2023/09/15 11:32:58;;;;;;;5.50;2.20;;;25.30;68.10;;;;;;4997397;28;20030;-83
2023/09/15 11:35:27;;;;;;;3.22;1.88;;;25.40;66.80;;;;;;5014970;28;20022;-83
2023/09/15 11:37:53;;;;;;;5.00;1.80;;;25.60;66.60;;;;;;5014634;28;20466;-83
2023/09/15 11:40:22;;;;;;;4.70;2.20;;;25.80;66.80;;;;;;4996718;28;20169;-83
2023/09/15 11:42:56;;;;;;;4.53;1.42;;;25.70;66.40;;;;;;4997282;28;20029;-83
2023/09/15 11:45:28;;;;;;;3.75;1.60;;;25.70;66.90;;;;;;4997034;28;20026;-83
2023/09/15 11:47:55;;;;;;;4.03;2.10;;;25.80;67.80;;;;;;5014703;28;20030;-82
2023/09/15 11:50:21;;;;;;;4.65;1.92;;;25.80;66.70;;;;;;5014513;28;20057;-83
2023/09/15 11:52:47;;;;;;;7.07;2.03;;;25.90;66.40;;;;;;5013908;28;20026;-83
2023/09/15 11:55:19;;;;;;;5.78;1.60;;;25.90;66.60;;;;;;5014022;28;20444;-83
2023/09/15 11:57:45;;;;;;;3.05;1.65;;;26.00;66.40;;;;;;4997154;28;20041;-83
2023/09/15 12:00:14;;;;;;;5.00;2.45;;;26.10;66.50;;;;;;4996853;28;20486;-83
2023/09/15 12:02:40;;;;;;;3.92;1.80;;;26.10;66.70;;;;;;5014058;28;20022;-83
2023/09/15 12:05:06;;;;;;;4.47;2.03;;;26.10;67.50;;;;;;4996709;28;20125;-82
2023/09/15 12:07:32;;;;;;;5.28;2.10;;;26.10;66.10;;;;;;5014384;28;20402;-82
2023/09/15 12:09:58;;;;;;;4.78;1.27;;;26.10;64.90;;;;;;5014789;28;20034;-83
2023/09/15 12:12:24;;;;;;;6.00;2.00;;;26.20;65.30;;;;;;5014124;28;20028;-83
2023/09/15 12:14:49;;;;;;;7.40;2.38;;;26.40;65.30;;;;;;5013990;28;20076;-81
2023/09/15 12:17:15;;;;;;;4.03;2.30;;;26.50;66.20;;;;;;4996381;28;20033;-82
2023/09/15 12:19:41;;;;;;;2.67;2.05;;;26.60;66.20;;;;;;5014283;28;20087;-82
2023/09/15 12:22:06;;;;;;;3.92;2.05;;;26.60;65.50;;;;;;5015261;28;20383;-83
2023/09/15 12:24:32;;;;;;;4.65;1.65;;;26.50;66.80;;;;;;5014263;28;20383;-83
2023/09/15 12:27:02;;;;;;;5.75;2.22;;;26.60;66.10;;;;;;5014591;28;20113;-83
2023/09/15 12:29:28;;;;;;;4.78;2.05;;;26.70;67.20;;;;;;5014112;28;20394;-83
2023/09/15 12:31:56;;;;;;;3.40;1.80;;;26.80;66.50;;;;;;4997020;28;20467;-82
2023/09/15 12:34:24;;;;;;;7.32;2.13;;;26.90;65.60;;;;;;4996720;28;20080;-83
2023/09/15 12:36:53;;;;;;;4.85;2.22;;;27.00;65.70;;;;;;5014270;28;20120;-82
2023/09/15 12:39:19;;;;;;;4.28;1.70;;;27.10;64.40;;;;;;5013654;28;20406;-83
2023/09/15 12:41:45;;;;;;;2.88;1.60;;;27.00;65.80;;;;;;4980512;28;20030;-83
2023/09/15 12:44:11;;;;;;;5.28;1.65;;;27.10;64.70;;;;;;5014080;28;20029;-84